Time;durP1;ratioP1;P1;durP2;ratioP2;P2;SDS_P1;SDS_P2;PMS_P1;PMS_P2;Temp;Humidity;BMP_temperature;BMP_pressure;BME280_temperature;BME280_humidity;BME280_pressure;Samples;Min_cycle;Max_cycle;Signal;HPM_P1;HPM_P2
2023/04/24 00:01:00;;;;;;;8.77;6.88;;;;;;;-146.18;100.00;67994.34;10075923;28;20047;-69
2023/04/24 00:05:58;;;;;;;8.57;7.60;;;;;;;-146.18;100.00;67994.34;10068439;28;20133;-67
2023/04/24 00:10:55;;;;;;;8.23;7.25;;;;;;;-146.18;100.00;67994.34;10069285;28;20048;-68
2023/04/24 00:15:51;;;;;;;8.45;7.18;;;;;;;-146.18;100.00;67994.34;10078001;28;20043;-67
2023/04/24 00:20:48;;;;;;;7.57;6.78;;;;;;;-146.18;100.00;67994.34;10070881;28;20066;-69
2023/04/24 00:25:44;;;;;;;8.05;7.35;;;;;;;-146.18;100.00;67994.34;10078937;28;20057;-69
2023/04/24 00:30:41;;;;;;;8.85;7.28;;;;;;;-146.18;100.00;67994.34;10072093;28;20570;-69
2023/04/24 00:35:37;;;;;;;7.20;6.43;;;;;;;-146.18;100.00;67994.34;10062737;28;20577;-67
2023/04/24 00:40:34;;;;;;;7.78;7.07;;;;;;;-146.18;100.00;67994.34;10075647;28;20062;-68
2023/04/24 00:45:31;;;;;;;9.38;7.05;;;;;;;-146.18;100.00;67994.34;10067275;28;20047;-70
2023/04/24 00:50:28;;;;;;;8.05;7.25;;;;;;;-146.18;100.00;67994.34;10064291;28;20055;-69
2023/04/24 00:55:25;;;;;;;8.05;7.25;;;;;;;-146.18;100.00;67994.34;10083782;28;20101;-69
2023/04/24 01:00:22;;;;;;;8.52;7.53;;;;;;;-146.18;100.00;67994.34;10065660;28;20383;-69
2023/04/24 01:05:18;;;;;;;7.95;7.25;;;;;;;-146.18;100.00;67994.34;11090447;23;21286;-65
2023/04/24 01:10:16;;;;;;;8.60;7.72;;;;;;;-146.18;100.00;67994.34;10094183;28;20062;-68
2023/04/24 01:15:13;;;;;;;8.93;7.90;;;;;;;-146.18;100.00;67994.34;10113796;28;20042;-68
2023/04/24 01:20:10;;;;;;;8.60;7.78;;;;;;;-146.18;100.00;67994.34;10095073;28;20050;-68
2023/04/24 01:25:07;;;;;;;7.93;7.20;;;;;;;-146.18;100.00;67994.34;10091012;28;20125;-68
2023/04/24 01:30:05;;;;;;;9.63;8.65;;;;;;;-146.18;100.00;67994.34;10106730;28;20071;-68
2023/04/24 01:35:01;;;;;;;8.93;7.32;;;;;;;-146.18;100.00;67994.34;10110192;28;20135;-68
2023/04/24 01:39:58;;;;;;;12.57;7.95;;;;;;;-146.18;100.00;67994.34;10099019;28;20047;-68
2023/04/24 01:44:55;;;;;;;8.35;7.55;;;;;;;-146.18;100.00;67994.34;10093467;28;20043;-68
2023/04/24 01:49:52;;;;;;;8.32;7.53;;;;;;;-146.18;100.00;67994.34;10101237;28;20134;-67
2023/04/24 01:54:48;;;;;;;7.22;6.53;;;;;;;-146.18;100.00;67994.34;10103392;28;20696;-67
2023/04/24 01:59:45;;;;;;;7.65;6.07;;;;;;;-146.18;100.00;67994.34;10091926;28;20038;-68
2023/04/24 02:04:41;;;;;;;6.80;6.10;;;;;;;-146.18;100.00;67994.34;10101025;28;20047;-68
2023/04/24 02:09:38;;;;;;;7.20;6.50;;;;;;;-146.18;100.00;67994.34;10104669;28;20118;-67
2023/04/24 02:14:34;;;;;;;5.65;5.15;;;;;;;-146.18;100.00;67994.34;10103042;28;20508;-67
2023/04/24 02:19:31;;;;;;;6.20;5.63;;;;;;;-146.18;100.00;67994.34;10099493;28;20139;-68
2023/04/24 02:24:27;;;;;;;6.50;5.90;;;;;;;-146.18;100.00;67994.34;10090345;28;20078;-68
2023/04/24 02:29:24;;;;;;;6.63;6.03;;;;;;;-146.18;100.00;67994.34;10099487;28;20097;-68
2023/04/24 02:34:20;;;;;;;6.78;6.18;;;;;;;-146.18;100.00;67994.34;10104088;28;20050;-68
2023/04/24 02:39:18;;;;;;;6.70;5.80;;;;;;;-146.18;100.00;67994.34;10101544;28;20524;-67
2023/04/24 02:44:14;;;;;;;5.93;5.43;;;;;;;-146.18;100.00;67994.34;10098486;28;20046;-67
2023/04/24 02:49:11;;;;;;;6.80;6.20;;;;;;;-146.18;100.00;67994.34;10100804;28;20043;-68
2023/04/24 02:54:11;;;;;;;6.00;5.50;;;;;;;-146.18;100.00;67994.34;10102889;28;20270;-67
2023/04/24 02:59:10;;;;;;;6.03;5.43;;;;;;;-146.18;100.00;67994.34;10093889;28;20056;-65
2023/04/24 03:04:06;;;;;;;6.10;5.50;;;;;;;-146.18;100.00;67994.34;10102875;28;20109;-64
2023/04/24 03:09:03;;;;;;;6.03;5.53;;;;;;;-146.18;100.00;67994.34;10104273;28;20054;-64
2023/04/24 03:14:00;;;;;;;5.93;5.43;;;;;;;-146.18;100.00;67994.34;10094515;28;20142;-67
2023/04/24 03:18:56;;;;;;;6.93;6.32;;;;;;;-146.18;100.00;67994.34;10093960;28;20342;-68
2023/04/24 03:23:53;;;;;;;7.40;5.10;;;;;;;-146.18;100.00;67994.34;10105349;28;20756;-68
2023/04/24 03:28:49;;;;;;;6.43;5.28;;;;;;;-146.18;100.00;67994.34;10103438;28;20130;-67
2023/04/24 03:33:45;;;;;;;5.38;4.97;;;;;;;-146.18;100.00;67994.34;10100529;28;20078;-68
2023/04/24 03:38:45;;;;;;;5.38;4.80;;;;;;;-146.18;100.00;67994.34;10102639;28;20439;-68
2023/04/24 03:43:41;;;;;;;5.88;5.30;;;;;;;-146.18;100.00;67994.34;10102917;28;20113;-68
2023/04/24 03:48:38;;;;;;;6.40;5.80;;;;;;;-146.18;100.00;67994.34;10101864;28;20118;-68
2023/04/24 03:53:34;;;;;;;6.63;5.40;;;;;;;-146.18;100.00;67994.34;10104062;28;20401;-67
2023/04/24 03:58:31;;;;;;;6.00;5.50;;;;;;;-146.18;100.00;67994.34;10097600;28;20094;-67
2023/04/24 04:03:27;;;;;;;5.88;5.38;;;;;;;-146.18;100.00;67994.34;10108869;28;20086;-67
2023/04/24 04:08:24;;;;;;;6.55;5.95;;;;;;;-146.18;100.00;67994.34;10105079;28;20101;-68
2023/04/24 04:13:20;;;;;;;6.15;5.72;;;;;;;-146.18;100.00;67994.34;10111175;28;20800;-67
2023/04/24 04:18:17;;;;;;;6.40;5.80;;;;;;;-146.18;100.00;67994.34;10104509;28;20043;-68
2023/04/24 04:23:14;;;;;;;6.40;5.90;;;;;;;-146.18;100.00;67994.34;10106969;28;20578;-68
2023/04/24 04:28:10;;;;;;;6.80;6.20;;;;;;;-146.18;100.00;67994.34;10108612;28;20515;-68
2023/04/24 04:33:08;;;;;;;6.13;5.63;;;;;;;-146.18;100.00;67994.34;10108079;28;20069;-68
2023/04/24 04:38:04;;;;;;;6.05;5.60;;;;;;;-146.18;100.00;67994.34;10105224;28;20053;-69
2023/04/24 04:43:01;;;;;;;5.68;5.20;;;;;;;-146.18;100.00;67994.34;10101380;28;20225;-69
2023/04/24 04:47:58;;;;;;;5.93;5.43;;;;;;;-146.18;100.00;67994.34;10102126;28;20054;-68
2023/04/24 04:52:54;;;;;;;5.80;5.28;;;;;;;-146.18;100.00;67994.34;10108420;28;20139;-68
2023/04/24 04:57:51;;;;;;;6.13;5.07;;;;;;;-146.18;100.00;67994.34;10099982;28;20047;-68
2023/04/24 05:02:48;;;;;;;5.45;5.05;;;;;;;-146.18;100.00;67994.34;10106427;28;20496;-68
2023/04/24 05:07:44;;;;;;;6.25;5.75;;;;;;;-146.18;100.00;67994.34;10105638;28;20039;-68
2023/04/24 05:12:41;;;;;;;5.72;5.00;;;;;;;-146.18;100.00;67994.34;10106680;28;20050;-67
2023/04/24 05:17:41;;;;;;;5.60;5.20;;;;;;;-146.18;100.00;67994.34;10107488;28;20043;-67
2023/04/24 05:22:37;;;;;;;7.28;6.60;;;;;;;-146.18;100.00;67994.34;10096393;28;20055;-68
2023/04/24 05:27:34;;;;;;;7.15;6.63;;;;;;;-146.18;100.00;67994.34;10096076;28;20094;-68
2023/04/24 05:32:30;;;;;;;6.80;6.30;;;;;;;-146.18;100.00;67994.34;10093758;28;20185;-68
2023/04/24 05:37:27;;;;;;;6.50;6.00;;;;;;;-146.18;100.00;67994.34;10092581;28;20076;-68
2023/04/24 05:42:23;;;;;;;5.88;5.38;;;;;;;-146.18;100.00;67994.34;10089385;28;20484;-68
2023/04/24 05:47:21;;;;;;;6.07;5.53;;;;;;;-146.18;100.00;67994.34;10098462;28;20051;-68
2023/04/24 05:52:18;;;;;;;5.80;5.20;;;;;;;-146.18;100.00;67994.34;10093316;28;20051;-68
2023/04/24 05:57:15;;;;;;;5.63;5.18;;;;;;;-146.18;100.00;67994.34;10094594;28;20413;-68
2023/04/24 06:02:11;;;;;;;5.63;5.13;;;;;;;-146.18;100.00;67994.34;10092549;28;20093;-68
2023/04/24 06:07:08;;;;;;;6.30;5.80;;;;;;;-146.18;100.00;67994.34;10098846;28;20051;-68
2023/04/24 06:12:04;;;;;;;5.97;5.47;;;;;;;-146.18;100.00;67994.34;10093700;28;20074;-68
2023/04/24 06:17:01;;;;;;;5.88;5.38;;;;;;;-146.18;100.00;67994.34;10098314;28;20047;-68
2023/04/24 06:21:57;;;;;;;5.90;5.40;;;;;;;-146.18;100.00;67994.34;10097945;28;20070;-68
2023/04/24 06:26:54;;;;;;;6.32;5.82;;;;;;;-146.18;100.00;67994.34;10102045;28;20065;-68
2023/04/24 06:31:50;;;;;;;6.00;5.50;;;;;;;-146.18;100.00;67994.34;10100850;28;20076;-68
2023/04/24 06:36:47;;;;;;;5.78;5.28;;;;;;;-146.18;100.00;67994.34;10089129;28;21918;-68
2023/04/24 06:41:43;;;;;;;6.00;5.60;;;;;;;-146.18;100.00;67994.34;10095367;28;20070;-68
2023/04/24 06:46:41;;;;;;;5.93;5.43;;;;;;;-146.18;100.00;67994.34;10097604;28;20055;-68
2023/04/24 06:51:37;;;;;;;6.40;5.80;;;;;;;-146.18;100.00;67994.34;10092696;28;20062;-68
2023/04/24 06:56:34;;;;;;;6.05;5.55;;;;;;;-146.18;100.00;67994.34;10096092;28;20051;-68
2023/04/24 07:01:30;;;;;;;6.45;5.95;;;;;;;-146.18;100.00;67994.34;10083895;28;20078;-68
2023/04/24 07:06:27;;;;;;;6.15;5.65;;;;;;;-146.18;100.00;67994.34;10090565;28;20051;-68
2023/04/24 07:11:23;;;;;;;8.80;6.78;;;;;;;-146.18;100.00;67994.34;10092008;28;20130;-68
2023/04/24 07:16:20;;;;;;;7.00;6.32;;;;;;;-146.18;100.00;67994.34;10090287;28;20058;-68
2023/04/24 07:21:16;;;;;;;7.00;6.40;;;;;;;-146.18;100.00;67994.34;10091138;28;20539;-68
2023/04/24 07:26:14;;;;;;;7.47;6.88;;;;;;;-146.18;100.00;67994.34;10097076;28;20073;-68
2023/04/24 07:31:11;;;;;;;7.50;6.85;;;;;;;-146.18;100.00;67994.34;10093776;28;20053;-68
2023/04/24 07:36:08;;;;;;;7.60;6.80;;;;;;;-146.18;100.00;67994.34;10093709;28;20078;-68
2023/04/24 07:41:04;;;;;;;7.43;6.75;;;;;;;-146.18;100.00;67994.34;10089689;28;20042;-68
2023/04/24 07:46:01;;;;;;;7.65;7.05;;;;;;;-146.18;100.00;67994.34;10091884;28;20065;-68
2023/04/24 07:50:58;;;;;;;8.52;6.55;;;;;;;-146.18;100.00;67994.34;10093668;28;20050;-68
2023/04/24 07:55:55;;;;;;;6.97;6.47;;;;;;;-146.18;100.00;67994.34;10086917;28;20046;-68
2023/04/24 08:00:52;;;;;;;7.68;7.07;;;;;;;-146.18;100.00;67994.34;10086855;28;20695;-68
2023/04/24 08:05:50;;;;;;;7.65;7.05;;;;;;;-146.18;100.00;67994.34;10098084;28;20517;-68
2023/04/24 08:10:47;;;;;;;7.28;6.72;;;;;;;-146.18;100.00;67994.34;10091992;28;20101;-68
2023/04/24 08:15:43;;;;;;;10.98;7.28;;;;;;;-146.18;100.00;67994.34;10104497;28;20793;-68
2023/04/24 08:20:40;;;;;;;9.98;8.95;;;;;;;-146.18;100.00;67994.34;10093600;28;20665;-68
2023/04/24 08:25:36;;;;;;;9.05;7.80;;;;;;;-146.18;100.00;67994.34;10092828;28;20047;-68
2023/04/24 08:30:33;;;;;;;8.98;8.18;;;;;;;-146.18;100.00;67994.34;10102544;28;20058;-68
2023/04/24 08:35:29;;;;;;;9.02;8.18;;;;;;;-146.18;100.00;67994.34;10103838;28;20077;-68
2023/04/24 08:40:29;;;;;;;8.57;7.78;;;;;;;-146.18;100.00;67994.34;10104952;28;20047;-68
2023/04/24 08:45:26;;;;;;;8.27;7.57;;;;;;;-146.18;100.00;67994.34;10100231;28;20617;-68
2023/04/24 08:50:22;;;;;;;7.97;7.20;;;;;;;-146.18;100.00;67994.34;10099415;28;20137;-68
2023/04/24 08:55:20;;;;;;;8.57;7.78;;;;;;;-146.18;100.00;67994.34;10096285;28;20606;-68
2023/04/24 09:00:17;;;;;;;8.38;7.68;;;;;;;-146.18;100.00;67994.34;10099697;28;20038;-68
2023/04/24 09:05:17;;;;;;;9.18;8.20;;;;;;;-146.18;100.00;67994.34;10097346;28;20051;-68
2023/04/24 09:10:14;;;;;;;8.15;7.45;;;;;;;-146.18;100.00;67994.34;10101990;28;20079;-68
2023/04/24 09:15:11;;;;;;;8.77;7.97;;;;;;;-146.18;100.00;67994.34;10099523;28;20097;-68
2023/04/24 09:20:08;;;;;;;9.63;8.85;;;;;;;-146.18;100.00;67994.34;10092566;28;20097;-69
2023/04/24 09:25:07;;;;;;;8.98;8.18;;;;;;;-146.18;100.00;67994.34;10099221;28;20086;-68
2023/04/24 09:30:03;;;;;;;9.93;9.13;;;;;;;-146.18;100.00;67994.34;10116196;28;20130;-69
2023/04/24 09:35:10;;;;;;;10.57;9.57;;;;;;;-146.18;100.00;67994.34;10086328;28;20579;-69
2023/04/24 09:40:16;;;;;;;10.02;9.05;;;;;;;-146.18;100.00;67994.34;10074892;28;20114;-69
2023/04/24 09:45:12;;;;;;;9.77;8.88;;;;;;;-146.18;100.00;67994.34;10101804;28;20061;-69
2023/04/24 09:50:16;;;;;;;9.88;9.10;;;;;;;-146.18;100.00;67994.34;10105288;28;20051;-69
2023/04/24 09:55:20;;;;;;;9.55;8.75;;;;;;;-146.18;100.00;67994.34;10098261;28;20101;-69
2023/04/24 10:00:22;;;;;;;9.48;8.55;;;;;;;-146.18;100.00;67994.34;10090587;28;20556;-70
2023/04/24 10:05:18;;;;;;;9.50;8.70;;;;;;;-146.18;100.00;67994.34;10093286;28;20119;-69
2023/04/24 10:10:15;;;;;;;10.05;9.07;;;;;;;-146.18;100.00;67994.34;10094262;28;20522;-69
2023/04/24 10:15:12;;;;;;;9.70;8.80;;;;;;;-146.18;100.00;67994.34;10087416;28;20121;-69
2023/04/24 10:20:10;;;;;;;9.27;8.38;;;;;;;-146.18;100.00;67994.34;10090259;28;20039;-69
2023/04/24 10:25:08;;;;;;;10.50;9.60;;;;;;;-146.18;100.00;67994.34;10096583;28;20060;-69
2023/04/24 10:30:06;;;;;;;11.70;10.55;;;;;;;-146.18;100.00;67994.34;10093716;28;20047;-69
2023/04/24 10:35:03;;;;;;;12.32;10.98;;;;;;;-146.18;100.00;67994.34;10087836;28;20055;-69
2023/04/24 10:40:00;;;;;;;12.10;10.93;;;;;;;-146.18;100.00;67994.34;10086413;28;20134;-69
2023/04/24 10:44:57;;;;;;;11.98;10.75;;;;;;;-146.18;100.00;67994.34;10093278;28;20049;-69
2023/04/24 10:49:58;;;;;;;12.32;11.00;;;;;;;-146.18;100.00;67994.34;10090696;28;20039;-69
2023/04/24 10:54:57;;;;;;;11.82;10.75;;;;;;;-146.18;100.00;67994.34;10092671;28;20073;-68
2023/04/24 11:00:20;;;;;;;13.07;11.88;;;;;;;-146.18;100.00;67994.34;10088655;28;20042;-69
2023/04/24 11:05:17;;;;;;;13.23;11.82;;;;;;;-146.18;100.00;67994.34;10083088;28;20081;-69
2023/04/24 11:10:26;;;;;;;12.57;11.27;;;;;;;-146.18;100.00;67994.34;10092544;28;20637;-69
2023/04/24 11:15:22;;;;;;;12.57;11.38;;;;;;;-146.18;100.00;67994.34;10095079;28;21387;-69
2023/04/24 11:20:23;;;;;;;13.88;11.05;;;;;;;-146.18;100.00;67994.34;10090940;28;20101;-69
2023/04/24 11:25:24;;;;;;;11.85;10.57;;;;;;;-146.18;100.00;67994.34;10094690;28;20061;-69
2023/04/24 11:30:21;;;;;;;12.80;11.52;;;;;;;-146.18;100.00;67994.34;10094525;28;20049;-69
2023/04/24 11:35:24;;;;;;;13.95;11.55;;;;;;;-146.18;100.00;67994.34;10095125;28;20126;-69
2023/04/24 11:40:25;;;;;;;11.20;10.13;;;;;;;-146.18;100.00;67994.34;10086945;28;20049;-69
2023/04/24 11:45:27;;;;;;;13.15;11.48;;;;;;;-146.18;100.00;67994.34;10093882;28;20054;-69
2023/04/24 11:50:28;;;;;;;11.35;10.32;;;;;;;-146.18;100.00;67994.34;10085255;28;20043;-69
2023/04/24 11:55:27;;;;;;;10.97;9.83;;;;;;;-146.18;100.00;67994.34;10100967;28;20118;-69
2023/04/24 12:00:26;;;;;;;10.98;9.82;;;;;;;-146.18;100.00;67994.34;10094251;28;20050;-69
2023/04/24 12:05:24;;;;;;;10.00;9.00;;;;;;;-146.18;100.00;67994.34;10099512;28;20055;-69
2023/04/24 12:10:23;;;;;;;11.63;9.60;;;;;;;-146.18;100.00;67994.34;10098850;28;25692;-69
2023/04/24 12:15:20;;;;;;;10.73;9.13;;;;;;;-146.18;100.00;67994.34;10098931;28;20050;-69
2023/04/24 12:20:17;;;;;;;10.73;9.63;;;;;;;-146.18;100.00;67994.34;10097752;28;20086;-69
2023/04/24 12:25:18;;;;;;;10.65;9.02;;;;;;;-146.18;100.00;67994.34;10100449;28;20057;-69
2023/04/24 12:30:16;;;;;;;9.68;8.77;;;;;;;-146.18;100.00;67994.34;10091774;28;20057;-69
2023/04/24 12:35:18;;;;;;;10.65;8.98;;;;;;;-146.18;100.00;67994.34;10096888;28;20074;-69
2023/04/24 12:40:15;;;;;;;11.05;9.10;;;;;;;-146.18;100.00;67994.34;10100298;28;20553;-69
2023/04/24 12:45:13;;;;;;;9.55;8.65;;;;;;;-146.18;100.00;67994.34;10099376;28;20492;-69
2023/04/24 12:50:11;;;;;;;10.55;8.77;;;;;;;-146.18;100.00;67994.34;10097051;28;20077;-69
2023/04/24 12:55:08;;;;;;;9.82;8.80;;;;;;;-146.18;100.00;67994.34;10106172;28;20047;-69
2023/04/24 13:00:07;;;;;;;11.13;9.98;;;;;;;-146.18;100.00;67994.34;10094779;28;20630;-69
2023/04/24 13:05:04;;;;;;;10.27;9.32;;;;;;;-146.18;100.00;67994.34;10100290;28;20551;-70
2023/04/24 13:10:00;;;;;;;10.75;9.68;;;;;;;-146.18;100.00;67994.34;10108622;28;20043;-69
2023/04/24 13:14:58;;;;;;;10.05;9.15;;;;;;;-146.18;100.00;67994.34;10101566;28;20138;-69
2023/04/24 13:19:55;;;;;;;11.82;10.07;;;;;;;-146.18;100.00;67994.34;10089733;28;20548;-69
2023/04/24 13:24:51;;;;;;;11.20;10.10;;;;;;;-146.18;100.00;67994.34;10099125;28;20055;-69
2023/04/24 13:29:48;;;;;;;11.25;10.02;;;;;;;-146.18;100.00;67994.34;10091531;28;20709;-69
2023/04/24 13:34:44;;;;;;;10.38;9.27;;;;;;;-146.18;100.00;67994.34;10099703;28;20828;-69
2023/04/24 13:39:43;;;;;;;10.20;9.30;;;;;;;-146.18;100.00;67994.34;10091091;28;20089;-69
2023/04/24 13:44:40;;;;;;;10.68;9.57;;;;;;;-146.18;100.00;67994.34;10095254;28;20113;-69
2023/04/24 13:49:36;;;;;;;9.63;8.23;;;;;;;-146.18;100.00;67994.34;10101877;28;20039;-69
2023/04/24 13:54:33;;;;;;;9.45;8.65;;;;;;;-146.18;100.00;67994.34;10090060;28;20050;-69
2023/04/24 13:59:29;;;;;;;10.48;9.52;;;;;;;-146.18;100.00;67994.34;10100941;28;20118;-69
2023/04/24 14:04:26;;;;;;;9.60;8.77;;;;;;;-146.18;100.00;67994.34;10100398;28;20093;-68
2023/04/24 14:09:23;;;;;;;13.02;9.02;;;;;;;-146.18;100.00;67994.34;10093083;28;20051;-69
2023/04/24 14:14:19;;;;;;;8.65;7.85;;;;;;;-146.18;100.00;67994.34;10099176;28;20743;-69
2023/04/24 14:19:15;;;;;;;11.00;9.05;;;;;;;-146.18;100.00;67994.34;10086672;28;20047;-69
2023/04/24 14:24:12;;;;;;;9.02;8.32;;;;;;;-146.18;100.00;67994.34;10102538;28;20050;-69
2023/04/24 14:29:08;;;;;;;10.30;9.05;;;;;;;-146.18;100.00;67994.34;10087056;28;20089;-68
2023/04/24 14:34:11;;;;;;;9.10;8.40;;;;;;;-146.18;100.00;67994.34;10101699;28;20050;-67
2023/04/24 14:39:07;;;;;;;8.60;7.90;;;;;;;-146.18;100.00;67994.34;10096354;28;20046;-69
2023/04/24 14:44:04;;;;;;;9.30;8.43;;;;;;;-146.18;100.00;67994.34;10100938;28;20075;-69
2023/04/24 14:49:01;;;;;;;9.75;8.75;;;;;;;-146.18;100.00;67994.34;10099662;28;20070;-69
2023/04/24 14:53:57;;;;;;;11.50;10.50;;;;;;;-146.18;100.00;67994.34;10098999;28;20053;-69
2023/04/24 14:58:55;;;;;;;12.85;11.65;;;;;;;-146.18;100.00;67994.34;10097729;28;20505;-69
2023/04/24 15:03:51;;;;;;;12.77;11.68;;;;;;;-146.18;100.00;67994.34;10093831;28;20126;-69
2023/04/24 15:08:48;;;;;;;13.30;12.10;;;;;;;-146.18;100.00;67994.34;10092780;28;20093;-69
2023/04/24 15:13:46;;;;;;;13.18;11.98;;;;;;;-146.18;100.00;67994.34;10092041;28;20073;-68
2023/04/24 15:18:43;;;;;;;12.43;11.18;;;;;;;-146.18;100.00;67994.34;10098153;28;20208;-68
2023/04/24 15:23:39;;;;;;;11.93;10.80;;;;;;;-146.18;100.00;67994.34;10101350;28;20067;-68
2023/04/24 15:28:36;;;;;;;10.43;9.52;;;;;;;-146.18;100.00;67994.34;10104136;28;20408;-70
2023/04/24 15:33:32;;;;;;;9.15;8.38;;;;;;;-146.18;100.00;67994.34;10103734;28;20138;-68
2023/04/24 15:38:29;;;;;;;7.95;7.25;;;;;;;-146.18;100.00;67994.34;10110135;28;20520;-68
2023/04/24 15:43:25;;;;;;;8.10;7.30;;;;;;;-146.18;100.00;67994.34;10103453;28;20666;-68
2023/04/24 15:48:22;;;;;;;7.18;6.57;;;;;;;-146.18;100.00;67994.34;10102555;28;20497;-68
2023/04/24 15:53:21;;;;;;;9.45;8.55;;;;;;;-146.18;100.00;67994.34;10101460;28;20132;-68
2023/04/24 15:58:20;;;;;;;9.57;8.77;;;;;;;-146.18;100.00;67994.34;10098867;28;20130;-68
2023/04/24 16:03:16;;;;;;;10.98;9.93;;;;;;;-146.18;100.00;67994.34;10103757;28;20057;-68
2023/04/24 16:08:14;;;;;;;11.38;10.30;;;;;;;-146.18;100.00;67994.34;10109392;28;20582;-68
2023/04/24 16:13:14;;;;;;;15.68;12.40;;;;;;;-146.18;100.00;67994.34;10106294;28;20510;-68
2023/04/24 16:18:11;;;;;;;12.85;11.55;;;;;;;-146.18;100.00;67994.34;10098458;28;20039;-68
2023/04/24 16:23:07;;;;;;;12.43;10.60;;;;;;;-146.18;100.00;67994.34;10110494;28;20691;-68
2023/04/24 16:28:04;;;;;;;12.05;10.60;;;;;;;-146.18;100.00;67994.34;10099339;28;20035;-67
2023/04/24 16:33:04;;;;;;;10.90;9.15;;;;;;;-146.18;100.00;67994.34;10097473;28;20142;-69
2023/04/24 16:38:02;;;;;;;8.63;7.82;;;;;;;-146.18;100.00;67994.34;10092320;28;20047;-67
2023/04/24 16:42:58;;;;;;;8.00;7.22;;;;;;;-146.18;100.00;67994.34;10090972;28;20054;-68
2023/04/24 16:47:55;;;;;;;8.38;7.63;;;;;;;-146.18;100.00;67994.34;10096262;28;20524;-68
2023/04/24 16:52:51;;;;;;;8.07;7.35;;;;;;;-146.18;100.00;67994.34;10106207;28;20088;-67
2023/04/24 16:57:48;;;;;;;7.82;7.10;;;;;;;-146.18;100.00;67994.34;10106769;28;20141;-70
2023/04/24 17:02:47;;;;;;;7.75;7.03;;;;;;;-146.18;100.00;67994.34;10103889;28;20039;-68
2023/04/24 17:07:44;;;;;;;7.93;7.20;;;;;;;-146.18;100.00;67994.34;10100926;28;20047;-68
2023/04/24 17:12:40;;;;;;;9.77;7.90;;;;;;;-146.18;100.00;67994.34;10103903;28;20077;-67
2023/04/24 17:17:37;;;;;;;8.85;7.95;;;;;;;-146.18;100.00;67994.34;10104801;28;20042;-67
2023/04/24 17:22:34;;;;;;;10.45;8.95;;;;;;;-146.18;100.00;67994.34;10094263;28;20043;-68
2023/04/24 17:27:30;;;;;;;10.93;8.13;;;;;;;-146.18;100.00;67994.34;10102291;28;20444;-67
2023/04/24 17:32:27;;;;;;;9.50;8.18;;;;;;;-146.18;100.00;67994.34;10087879;28;20051;-68
2023/04/24 17:37:23;;;;;;;10.63;8.20;;;;;;;-146.18;100.00;67994.34;10105045;28;20093;-68
2023/04/24 17:42:23;;;;;;;9.50;8.40;;;;;;;-146.18;100.00;67994.34;10095720;28;20074;-68
2023/04/24 17:47:21;;;;;;;12.57;9.90;;;;;;;-146.18;100.00;67994.34;10100335;28;20126;-67
2023/04/24 17:52:17;;;;;;;12.48;8.95;;;;;;;-146.18;100.00;67994.34;10099098;28;20055;-68
2023/04/24 17:57:14;;;;;;;13.35;8.88;;;;;;;-146.18;100.00;67994.34;10107180;28;20483;-68
2023/04/24 18:02:14;;;;;;;10.27;8.40;;;;;;;-146.18;100.00;67994.34;10100112;28;20126;-68
2023/04/24 18:07:12;;;;;;;10.13;8.55;;;;;;;-146.18;100.00;67994.34;10093115;28;20054;-68
2023/04/24 18:12:09;;;;;;;12.10;8.95;;;;;;;-146.18;100.00;67994.34;10101472;28;20075;-67
2023/04/24 18:17:06;;;;;;;13.43;8.85;;;;;;;-146.18;100.00;67994.34;10108049;28;20137;-68
2023/04/24 18:22:03;;;;;;;15.15;7.97;;;;;;;-146.18;100.00;67994.34;10109468;28;20054;-68
2023/04/24 18:27:00;;;;;;;10.65;8.02;;;;;;;-146.18;100.00;67994.34;10101356;28;20102;-68
2023/04/24 18:31:57;;;;;;;13.45;8.60;;;;;;;-146.18;100.00;67994.34;10102269;28;20082;-68
2023/04/24 18:36:54;;;;;;;11.70;8.30;;;;;;;-146.18;100.00;67994.34;10099058;28;20078;-66
2023/04/24 18:41:50;;;;;;;10.13;7.65;;;;;;;-146.18;100.00;67994.34;10105763;28;20390;-67
2023/04/24 18:46:47;;;;;;;8.57;6.80;;;;;;;-146.18;100.00;67994.34;10101007;28;20523;-67
2023/04/24 18:51:43;;;;;;;8.68;6.45;;;;;;;-146.18;100.00;67994.34;10096021;28;20058;-67
2023/04/24 18:56:51;;;;;;;7.03;6.32;;;;;;;-146.18;100.00;67994.34;10099933;28;20607;-68
2023/04/24 19:01:48;;;;;;;8.57;6.65;;;;;;;-146.18;100.00;67994.34;10102066;28;20053;-69
2023/04/24 19:06:45;;;;;;;7.45;6.25;;;;;;;-146.18;100.00;67994.34;10102619;28;20043;-68
2023/04/24 19:11:43;;;;;;;6.85;6.20;;;;;;;-146.18;100.00;67994.34;10101997;28;20046;-68
2023/04/24 19:16:40;;;;;;;8.13;6.13;;;;;;;-146.18;100.00;67994.34;10104002;28;20486;-68
2023/04/24 19:21:37;;;;;;;8.10;5.85;;;;;;;-146.18;100.00;67994.34;10097792;28;20049;-68
2023/04/24 19:26:33;;;;;;;11.10;6.18;;;;;;;-146.18;100.00;67994.34;10095554;28;20047;-68
2023/04/24 19:31:30;;;;;;;9.35;7.03;;;;;;;-146.18;100.00;67994.34;10097537;28;20054;-68
2023/04/24 19:36:29;;;;;;;6.28;5.68;;;;;;;-146.18;100.00;67994.34;10100903;28;20054;-68
2023/04/24 19:41:29;;;;;;;8.38;6.13;;;;;;;-146.18;100.00;67994.34;10096549;28;20122;-68
2023/04/24 19:46:26;;;;;;;8.93;5.90;;;;;;;-146.18;100.00;67994.34;10100474;28;20038;-68
2023/04/24 19:51:22;;;;;;;8.18;5.97;;;;;;;-146.18;100.00;67994.34;10105384;28;20094;-68
2023/04/24 19:56:19;;;;;;;8.48;6.05;;;;;;;-146.18;100.00;67994.34;10122747;28;20598;-69
2023/04/24 20:01:16;;;;;;;8.63;6.50;;;;;;;-146.18;100.00;67994.34;10104915;28;20062;-68
2023/04/24 20:06:12;;;;;;;7.30;6.07;;;;;;;-146.18;100.00;67994.34;10091470;28;20055;-69
2023/04/24 20:11:09;;;;;;;7.53;6.32;;;;;;;-146.18;100.00;67994.34;10093807;28;20066;-67
2023/04/24 20:16:06;;;;;;;16.05;6.95;;;;;;;-146.18;100.00;67994.34;10110527;28;20086;-69
2023/04/24 20:21:07;;;;;;;8.77;6.97;;;;;;;-146.18;100.00;67994.34;10110187;28;20050;-69
2023/04/24 20:26:04;;;;;;;10.70;7.78;;;;;;;-146.18;100.00;67994.34;10107659;28;20527;-69
2023/04/24 20:31:00;;;;;;;7.72;6.53;;;;;;;-146.18;100.00;67994.34;10103809;28;20704;-69
2023/04/24 20:35:57;;;;;;;6.88;5.95;;;;;;;-146.18;100.00;67994.34;10104844;28;20058;-70
2023/04/24 20:40:53;;;;;;;9.93;6.55;;;;;;;-146.18;100.00;67994.34;10110043;28;20121;-68
2023/04/24 20:45:53;;;;;;;10.02;6.63;;;;;;;-146.18;100.00;67994.34;10101206;28;20065;-69
2023/04/24 20:50:52;;;;;;;8.77;6.35;;;;;;;-146.18;100.00;67994.34;10097288;28;20042;-69
2023/04/24 20:55:49;;;;;;;9.48;6.20;;;;;;;-146.18;100.00;67994.34;10099657;28;20043;-69
2023/04/24 21:00:45;;;;;;;11.32;6.03;;;;;;;-146.18;100.00;67994.34;10103945;28;20708;-69
2023/04/24 21:05:42;;;;;;;10.15;6.15;;;;;;;-146.18;100.00;67994.34;10111038;28;20074;-68
2023/04/24 21:10:39;;;;;;;9.18;5.88;;;;;;;-146.18;100.00;67994.34;10110939;28;20047;-68
2023/04/24 21:15:35;;;;;;;9.13;6.03;;;;;;;-146.18;100.00;67994.34;10106518;28;20500;-68
2023/04/24 21:20:31;;;;;;;10.05;7.00;;;;;;;-146.18;100.00;67994.34;10107142;28;20502;-66
2023/04/24 21:25:28;;;;;;;7.85;6.50;;;;;;;-146.18;100.00;67994.34;10106959;28;20070;-67
2023/04/24 21:30:25;;;;;;;8.93;6.63;;;;;;;-146.18;100.00;67994.34;10113301;28;20555;-68
2023/04/24 21:35:22;;;;;;;8.95;6.47;;;;;;;-146.18;100.00;67994.34;10111002;28;20468;-68
2023/04/24 21:40:18;;;;;;;9.80;6.85;;;;;;;-146.18;100.00;67994.34;10111590;28;20134;-67
2023/04/24 21:45:15;;;;;;;8.82;5.90;;;;;;;-146.18;100.00;67994.34;10104816;28;20046;-69
2023/04/24 21:50:11;;;;;;;8.43;5.82;;;;;;;-146.18;100.00;67994.34;10101051;28;20138;-70
2023/04/24 21:55:08;;;;;;;10.23;6.88;;;;;;;-146.18;100.00;67994.34;10101036;28;20061;-69
2023/04/24 22:00:07;;;;;;;8.25;6.25;;;;;;;-146.18;100.00;67994.34;10106908;28;20050;-68
2023/04/24 22:05:04;;;;;;;8.50;6.32;;;;;;;-146.18;100.00;67994.34;10102478;28;20109;-68
2023/04/24 22:10:01;;;;;;;10.73;7.20;;;;;;;-146.18;100.00;67994.34;10109879;28;20080;-67